Time;durP1;ratioP1;P1;durP2;ratioP2;P2;SDS_P1;SDS_P2;PMS_P1;PMS_P2;Temp;Humidity;BMP_temperature;BMP_pressure;BME280_temperature;BME280_humidity;BME280_pressure;Samples;Min_cycle;Max_cycle;Signal;HPM_P1;HPM_P2
2021/12/15 00:01:26;;;;;;;38.37;23.37;;;9.90;99.90;;;;;;5073580;28;20184;-75
2021/12/15 00:03:52;;;;;;;40.97;24.57;;;9.90;99.90;;;;;;5073749;28;20245;-74
2021/12/15 00:06:19;;;;;;;42.33;25.57;;;9.90;99.90;;;;;;5073300;28;20700;-74
2021/12/15 00:08:48;;;;;;;43.70;25.67;;;9.90;99.90;;;;;;5073753;28;20173;-73
2021/12/15 00:11:15;;;;;;;41.57;25.03;;;9.80;99.90;;;;;;5073261;28;20179;-74
2021/12/15 00:13:41;;;;;;;44.30;26.17;;;9.90;99.90;;;;;;5073500;28;20314;-75
2021/12/15 00:16:10;;;;;;;42.40;25.70;;;9.90;99.90;;;;;;5073464;28;20301;-75
2021/12/15 00:18:41;;;;;;;42.50;24.53;;;9.90;99.90;;;;;;5073517;28;20175;-74
2021/12/15 00:21:13;;;;;;;44.97;25.60;;;9.80;99.90;;;;;;5073092;28;20624;-74
2021/12/15 00:23:40;;;;;;;46.97;25.73;;;9.80;99.90;;;;;;5073329;28;20228;-75
2021/12/15 00:26:06;;;;;;;42.90;24.97;;;9.80;99.90;;;;;;5073137;28;20173;-74
2021/12/15 00:28:33;;;;;;;43.20;25.17;;;9.80;99.90;;;;;;5073571;28;20192;-75
2021/12/15 00:30:59;;;;;;;41.60;25.77;;;9.80;99.90;;;;;;5073523;28;20191;-75
2021/12/15 00:33:25;;;;;;;41.17;25.03;;;9.80;99.90;;;;;;5073031;28;20164;-75
2021/12/15 00:35:51;;;;;;;40.83;24.73;;;9.80;99.90;;;;;;5072975;28;20227;-74
2021/12/15 00:38:17;;;;;;;43.50;25.70;;;9.80;99.90;;;;;;5073168;28;20525;-74
2021/12/15 00:40:43;;;;;;;43.27;25.33;;;9.90;99.90;;;;;;5071814;28;20200;-74
2021/12/15 00:43:09;;;;;;;43.47;25.67;;;9.90;99.90;;;;;;5073042;28;20588;-74
2021/12/15 00:45:35;;;;;;;44.20;25.60;;;9.90;99.90;;;;;;5071615;28;20252;-73
2021/12/15 00:48:01;;;;;;;44.57;26.00;;;9.90;99.90;;;;;;5073132;28;20176;-74
2021/12/15 00:50:32;;;;;;;46.13;25.90;;;9.90;99.90;;;;;;5072177;28;20646;-74
2021/12/15 00:52:58;;;;;;;46.77;25.20;;;9.90;99.90;;;;;;5073102;28;20652;-75
2021/12/15 00:55:26;;;;;;;45.43;25.37;;;9.90;99.90;;;;;;5072824;28;20698;-74
2021/12/15 00:57:52;;;;;;;44.30;26.17;;;10.00;99.90;;;;;;5072869;28;20200;-73
2021/12/15 01:00:27;;;;;;;42.73;25.47;;;10.00;99.90;;;;;;5072722;28;20192;-74
2021/12/15 01:02:53;;;;;;;44.17;25.17;;;10.00;99.90;;;;;;5072769;28;20659;-74
2021/12/15 01:05:26;;;;;;;45.67;26.57;;;9.90;99.90;;;;;;5072410;28;20214;-75
2021/12/15 01:07:52;;;;;;;52.03;26.73;;;9.90;99.90;;;;;;5072526;28;20177;-75
2021/12/15 01:10:27;;;;;;;46.63;26.17;;;9.90;99.90;;;;;;5072761;28;20169;-75
2021/12/15 01:21:04;;;;;;;50.53;26.50;;;9.70;99.90;;;;;;5072685;28;20214;-75
2021/12/15 01:23:32;;;;;;;47.27;25.73;;;9.70;99.90;;;;;;5073124;28;20228;-75
2021/12/15 01:26:02;;;;;;;50.43;26.93;;;9.70;99.90;;;;;;5076966;28;20169;-74
2021/12/15 01:28:29;;;;;;;48.40;27.10;;;9.70;99.90;;;;;;5076788;28;20267;-74
2021/12/15 01:30:55;;;;;;;49.03;27.27;;;9.80;99.90;;;;;;5074972;28;20672;-74
2021/12/15 01:33:23;;;;;;;50.10;27.13;;;9.70;99.90;;;;;;5076092;28;20183;-74
2021/12/15 01:35:52;;;;;;;53.77;27.90;;;9.80;99.90;;;;;;5076466;28;20219;-75
2021/12/15 01:38:22;;;;;;;50.50;27.80;;;9.90;99.90;;;;;;5076480;28;20165;-75
2021/12/15 01:40:48;;;;;;;47.87;27.27;;;9.90;99.90;;;;;;5076324;28;20200;-75
2021/12/15 01:43:35;;;;;;;50.27;27.17;;;9.90;99.90;;;;;;5076372;28;20175;-74
2021/12/15 01:49:07;;;;;;;45.37;25.67;;;10.00;99.90;;;;;;5076031;28;20762;-75
2021/12/15 01:51:33;;;;;;;48.87;26.90;;;10.00;99.90;;;;;;5076068;28;20176;-75
2021/12/15 01:53:59;;;;;;;42.93;25.60;;;9.90;99.90;;;;;;5076202;28;20647;-74
2021/12/15 01:56:26;;;;;;;47.37;26.47;;;9.90;99.90;;;;;;5076169;28;20675;-75
2021/12/15 01:58:52;;;;;;;46.23;25.53;;;10.00;99.90;;;;;;5076036;28;20168;-75
2021/12/15 02:01:17;;;;;;;49.63;26.53;;;9.90;99.90;;;;;;5075564;28;20259;-74
2021/12/15 02:03:43;;;;;;;46.70;26.07;;;9.90;99.90;;;;;;5076074;28;20207;-74
2021/12/15 02:06:10;;;;;;;46.77;25.47;;;9.90;99.90;;;;;;5074690;28;20184;-74
2021/12/15 02:08:37;;;;;;;49.27;27.33;;;10.00;99.90;;;;;;5075854;28;20260;-74
2021/12/15 02:11:03;;;;;;;46.00;26.50;;;9.90;99.90;;;;;;5075788;28;20222;-76
2021/12/15 02:13:30;;;;;;;49.10;27.17;;;9.90;99.90;;;;;;5075769;28;20196;-74
2021/12/15 02:15:57;;;;;;;47.93;26.50;;;10.00;99.90;;;;;;5075435;28;20480;-75
2021/12/15 02:18:27;;;;;;;46.07;25.73;;;9.90;99.90;;;;;;5075843;28;20634;-75
2021/12/15 02:21:04;;;;;;;45.13;26.50;;;9.80;99.90;;;;;;5075645;28;20176;-75
2021/12/15 02:23:37;;;;;;;52.53;27.33;;;9.90;99.90;;;;;;5075575;28;20293;-74
2021/12/15 02:26:08;;;;;;;50.20;26.63;;;9.80;99.90;;;;;;5075770;28;20172;-75
2021/12/15 02:28:37;;;;;;;49.70;27.30;;;9.80;99.90;;;;;;5075616;28;20688;-74
2021/12/15 02:31:17;;;;;;;50.90;27.83;;;9.80;99.90;;;;;;5075246;28;20634;-75
2021/12/15 02:39:00;;;;;;;51.20;27.33;;;9.80;99.90;;;;;;5075882;28;20178;-74
2021/12/15 02:41:29;;;;;;;52.37;26.70;;;9.80;99.90;;;;;;5075419;28;20233;-74
2021/12/15 02:44:07;;;;;;;51.67;27.00;;;10.00;99.90;;;;;;5073810;28;20640;-74
2021/12/15 02:46:35;;;;;;;49.07;26.13;;;10.00;99.90;;;;;;5075236;28;20691;-74
2021/12/15 02:49:02;;;;;;;48.73;25.77;;;10.00;99.90;;;;;;5075122;28;20711;-75
2021/12/15 02:51:32;;;;;;;49.10;26.53;;;9.90;99.90;;;;;;5075036;28;20226;-74
2021/12/15 02:53:59;;;;;;;47.93;26.43;;;9.90;99.90;;;;;;5075291;28;20566;-74
2021/12/15 02:56:25;;;;;;;45.47;25.30;;;10.00;99.90;;;;;;5074897;28;20208;-75
2021/12/15 02:58:57;;;;;;;46.83;25.83;;;10.20;99.90;;;;;;5073629;28;20180;-75
2021/12/15 03:01:51;;;;;;;48.43;26.00;;;10.20;99.90;;;;;;5074609;28;20191;-74
2021/12/15 03:04:38;;;;;;;50.23;26.57;;;10.10;99.90;;;;;;5075072;28;20196;-75
2021/12/15 03:17:57;;;;;;;44.57;24.80;;;10.00;99.90;;;;;;5074731;28;20242;-74
2021/12/15 03:20:25;;;;;;;43.10;24.63;;;9.90;99.90;;;;;;5074638;28;20255;-74
2021/12/15 03:22:51;;;;;;;41.63;23.83;;;9.90;99.90;;;;;;5073329;28;20177;-74
2021/12/15 03:25:18;;;;;;;41.00;24.13;;;9.80;99.90;;;;;;5074104;28;20303;-74
2021/12/15 03:36:09;;;;;;;40.40;23.47;;;9.80;99.90;;;;;;4973514;28;20218;-74
2021/12/15 03:38:36;;;;;;;44.97;25.33;;;9.80;99.90;;;;;;4973503;28;20661;-74
2021/12/15 03:41:08;;;;;;;42.60;23.97;;;9.90;99.90;;;;;;4972704;28;20266;-74
2021/12/15 03:43:34;;;;;;;39.23;22.73;;;9.80;99.90;;;;;;4973049;28;20188;-74
2021/12/15 03:46:06;;;;;;;42.33;23.93;;;9.80;99.90;;;;;;4972893;28;20180;-74
2021/12/15 03:48:36;;;;;;;41.40;24.57;;;9.80;99.90;;;;;;4973029;28;20179;-74
2021/12/15 03:51:03;;;;;;;40.33;24.30;;;9.80;99.90;;;;;;4973091;28;20689;-74
2021/12/15 03:53:30;;;;;;;43.17;25.50;;;9.90;99.90;;;;;;4973149;28;20184;-74
2021/12/15 03:55:57;;;;;;;41.90;23.77;;;9.90;99.90;;;;;;4973213;28;20668;-74
2021/12/15 03:58:24;;;;;;;43.97;24.87;;;9.90;99.90;;;;;;4972747;28;20196;-74
2021/12/15 04:01:05;;;;;;;42.70;23.53;;;9.90;99.90;;;;;;4972710;28;20168;-74
2021/12/15 04:03:35;;;;;;;40.63;23.50;;;9.90;99.90;;;;;;4991580;28;20605;-73
2021/12/15 04:06:04;;;;;;;40.17;23.17;;;10.00;99.90;;;;;;5073765;28;20172;-74
2021/12/15 04:08:31;;;;;;;41.17;23.73;;;10.10;99.90;;;;;;5073782;28;20175;-73
2021/12/15 04:10:58;;;;;;;38.17;23.77;;;10.00;99.90;;;;;;5073277;28;20187;-74
2021/12/15 04:13:24;;;;;;;42.23;24.23;;;10.10;99.90;;;;;;5071627;28;20179;-75
2021/12/15 04:15:56;;;;;;;39.27;24.23;;;10.10;99.90;;;;;;5073548;28;20242;-73
2021/12/15 04:18:25;;;;;;;42.23;25.03;;;10.10;99.90;;;;;;5073657;28;20164;-75
2021/12/15 04:20:52;;;;;;;41.83;24.70;;;10.10;99.90;;;;;;5073012;28;20164;-75
2021/12/15 04:23:20;;;;;;;44.43;25.80;;;10.10;99.90;;;;;;5073071;28;20236;-74
2021/12/15 04:25:50;;;;;;;46.17;25.80;;;10.10;99.90;;;;;;5073265;28;20172;-74
2021/12/15 04:28:22;;;;;;;43.77;26.60;;;10.20;99.90;;;;;;5072947;28;20172;-74
2021/12/15 04:30:51;;;;;;;42.97;24.60;;;10.30;99.90;;;;;;5072984;28;20172;-74
2021/12/15 04:33:36;;;;;;;42.70;25.07;;;10.20;99.90;;;;;;5073413;28;20161;-74
2021/12/15 04:36:06;;;;;;;48.97;26.03;;;10.20;99.90;;;;;;5072768;28;20303;-74
2021/12/15 04:38:33;;;;;;;42.70;24.53;;;10.20;99.90;;;;;;5072745;28;20624;-74
2021/12/15 04:41:01;;;;;;;46.63;25.43;;;10.20;99.90;;;;;;5072128;28;20195;-73
2021/12/15 04:43:32;;;;;;;45.27;27.07;;;10.20;99.90;;;;;;5072875;28;20172;-74
2021/12/15 04:46:01;;;;;;;44.30;24.03;;;10.30;99.90;;;;;;5073127;28;20164;-74
2021/12/15 04:48:26;;;;;;;49.17;25.77;;;10.30;99.90;;;;;;5072867;28;20175;-74
2021/12/15 04:50:52;;;;;;;44.30;25.73;;;10.30;99.90;;;;;;5072482;28;20263;-74
2021/12/15 04:53:18;;;;;;;41.30;25.17;;;10.20;99.90;;;;;;5072517;28;20270;-74
2021/12/15 04:55:44;;;;;;;47.10;27.30;;;10.30;99.90;;;;;;5070829;28;20214;-74
2021/12/15 04:58:11;;;;;;;45.20;26.07;;;10.30;99.90;;;;;;5072801;28;20312;-74
2021/12/15 05:00:42;;;;;;;42.90;26.83;;;10.30;99.90;;;;;;5072389;28;20165;-74
2021/12/15 05:03:07;;;;;;;42.10;25.27;;;10.20;99.90;;;;;;5072444;28;20195;-74
2021/12/15 05:05:34;;;;;;;46.50;25.57;;;10.20;99.90;;;;;;5072395;28;20640;-73
2021/12/15 05:08:01;;;;;;;46.53;25.37;;;10.20;99.90;;;;;;5072243;28;20176;-74
2021/12/15 05:10:27;;;;;;;42.63;26.03;;;10.10;99.90;;;;;;5071567;28;20191;-73
2021/12/15 05:12:55;;;;;;;47.93;27.00;;;10.10;99.90;;;;;;5072655;28;20160;-75
2021/12/15 05:15:21;;;;;;;47.70;27.27;;;10.10;99.90;;;;;;5072164;28;20214;-75
2021/12/15 05:17:46;;;;;;;48.10;27.63;;;10.10;99.90;;;;;;5072508;28;20252;-75
2021/12/15 05:20:12;;;;;;;44.93;27.53;;;10.10;99.90;;;;;;5072282;28;20192;-75
2021/12/15 05:22:39;;;;;;;45.37;26.97;;;10.10;99.90;;;;;;5072172;28;20168;-74
2021/12/15 05:25:07;;;;;;;47.33;26.50;;;10.00;99.90;;;;;;5071728;28;20228;-75
2021/12/15 05:27:34;;;;;;;45.23;26.57;;;10.00;99.90;;;;;;5071354;28;20263;-75
2021/12/15 05:29:59;;;;;;;47.43;26.73;;;10.00;99.90;;;;;;5072514;28;20192;-74
2021/12/15 05:32:25;;;;;;;51.93;27.50;;;10.00;99.90;;;;;;5071737;28;20585;-74
2021/12/15 05:34:58;;;;;;;44.47;24.67;;;10.00;99.90;;;;;;5072260;28;20543;-75
2021/12/15 05:37:24;;;;;;;48.33;27.63;;;10.00;99.90;;;;;;5072090;28;20184;-74
2021/12/15 05:39:52;;;;;;;48.00;26.33;;;10.00;99.90;;;;;;5071674;28;20195;-75
2021/12/15 05:42:19;;;;;;;49.40;27.20;;;10.00;99.90;;;;;;5071887;28;20205;-74
2021/12/15 05:44:46;;;;;;;50.63;28.20;;;10.00;99.90;;;;;;5072584;28;20214;-75
2021/12/15 05:47:12;;;;;;;51.00;29.03;;;10.00;99.90;;;;;;5071828;28;20218;-74
2021/12/15 05:49:38;;;;;;;49.40;27.40;;;9.90;99.90;;;;;;5072219;28;20176;-75
2021/12/15 05:52:05;;;;;;;50.63;28.23;;;9.90;99.90;;;;;;5071698;28;20581;-74
2021/12/15 05:54:30;;;;;;;43.40;26.03;;;10.00;99.90;;;;;;5071218;28;20628;-74
2021/12/15 05:56:57;;;;;;;49.93;27.83;;;10.00;99.90;;;;;;5072017;28;20291;-75
2021/12/15 05:59:33;;;;;;;48.07;27.87;;;10.10;99.90;;;;;;5070672;28;20626;-75
2021/12/15 06:01:59;;;;;;;47.87;27.03;;;10.20;99.90;;;;;;5071733;28;20176;-74
2021/12/15 06:04:25;;;;;;;44.00;27.37;;;10.10;99.90;;;;;;5071523;28;20188;-74
2021/12/15 06:06:51;;;;;;;49.67;28.13;;;10.20;99.90;;;;;;5071608;28;20180;-75
2021/12/15 06:09:17;;;;;;;42.20;25.37;;;10.20;99.90;;;;;;5070931;28;20172;-75
2021/12/15 06:11:47;;;;;;;43.53;26.57;;;10.30;99.90;;;;;;5074960;28;20176;-75
2021/12/15 06:14:12;;;;;;;41.57;25.90;;;10.30;99.90;;;;;;5075347;28;20185;-74
2021/12/15 06:16:38;;;;;;;44.67;26.73;;;10.30;99.90;;;;;;5074799;28;20564;-75
2021/12/15 06:19:06;;;;;;;45.07;25.97;;;10.30;99.90;;;;;;5074656;28;20183;-74
2021/12/15 06:21:32;;;;;;;43.47;26.50;;;10.40;99.90;;;;;;5073965;28;20247;-74
2021/12/15 06:23:58;;;;;;;45.50;25.93;;;10.30;99.90;;;;;;5074052;28;20224;-74
2021/12/15 06:26:24;;;;;;;44.83;27.13;;;10.30;99.90;;;;;;5074892;28;20172;-74
2021/12/15 06:28:50;;;;;;;40.37;26.30;;;10.30;99.90;;;;;;5074665;28;20179;-74
2021/12/15 06:31:17;;;;;;;44.40;25.97;;;10.40;99.90;;;;;;5074435;28;20188;-75
2021/12/15 06:33:46;;;;;;;41.80;26.50;;;10.40;99.90;;;;;;5074674;28;20284;-74
2021/12/15 06:36:19;;;;;;;43.37;27.00;;;10.40;99.90;;;;;;5074088;28;20235;-75
2021/12/15 06:38:45;;;;;;;46.47;27.57;;;10.50;99.90;;;;;;5074256;28;20172;-74
2021/12/15 06:41:12;;;;;;;45.77;26.83;;;10.50;99.90;;;;;;5074578;28;20180;-75
2021/12/15 06:43:51;;;;;;;45.93;27.70;;;10.50;99.90;;;;;;5074323;28;20180;-75
2021/12/15 06:47:07;;;;;;;47.23;26.60;;;10.50;99.90;;;;;;5073515;28;20542;-76
2021/12/15 07:00:30;;;;;;;49.27;25.80;;;10.20;99.90;;;;;;5073396;28;20211;-75
2021/12/15 07:03:03;;;;;;;45.00;26.07;;;10.20;99.90;;;;;;5073885;28;20291;-75
2021/12/15 07:05:33;;;;;;;43.33;24.53;;;10.30;99.90;;;;;;5073382;28;20255;-74
2021/12/15 07:08:01;;;;;;;47.97;26.53;;;10.20;99.90;;;;;;5073534;28;20173;-75
2021/12/15 07:10:29;;;;;;;52.27;28.20;;;10.10;99.90;;;;;;5072900;28;20165;-75
2021/12/15 07:12:55;;;;;;;45.70;27.37;;;10.20;99.90;;;;;;5074099;28;20179;-74
2021/12/15 07:15:21;;;;;;;50.03;27.53;;;10.20;99.90;;;;;;5073229;28;20287;-75
2021/12/15 07:17:50;;;;;;;50.53;27.83;;;10.20;99.90;;;;;;5072784;28;20594;-76
2021/12/15 07:20:36;;;;;;;50.20;26.10;;;10.30;99.90;;;;;;5072564;28;20176;-75
2021/12/15 07:23:04;;;;;;;47.57;27.63;;;10.30;99.90;;;;;;5072883;28;20575;-75
2021/12/15 07:25:33;;;;;;;44.97;26.30;;;10.30;99.90;;;;;;5073001;28;20275;-75
2021/12/15 07:27:59;;;;;;;48.30;27.47;;;10.30;99.90;;;;;;5072984;28;20173;-74
2021/12/15 07:30:26;;;;;;;48.67;27.53;;;10.30;99.90;;;;;;5073469;28;20263;-75
2021/12/15 07:32:52;;;;;;;45.73;26.63;;;10.30;99.90;;;;;;5073549;28;20168;-75
2021/12/15 07:35:19;;;;;;;45.53;25.97;;;10.30;99.90;;;;;;5069724;28;20628;-74
2021/12/15 07:37:44;;;;;;;43.23;26.20;;;10.30;99.90;;;;;;5072800;28;20299;-75
2021/12/15 07:40:21;;;;;;;46.43;27.20;;;10.20;99.90;;;;;;5079838;28;20593;-74
2021/12/15 07:43:08;;;;;;;45.10;27.23;;;10.30;99.90;;;;;;5062639;28;20216;-75
2021/12/15 07:45:37;;;;;;;43.80;25.63;;;10.20;99.90;;;;;;5058253;28;20184;-74
2021/12/15 07:48:04;;;;;;;47.50;26.73;;;10.30;99.90;;;;;;5063329;28;20220;-75
2021/12/15 07:50:34;;;;;;;44.37;25.17;;;10.20;99.90;;;;;;5061156;28;20185;-75
2021/12/15 07:53:00;;;;;;;40.60;25.63;;;10.30;99.90;;;;;;5061235;28;20259;-74
2021/12/15 07:55:29;;;;;;;42.33;24.77;;;10.40;99.90;;;;;;5054242;28;20600;-75
2021/12/15 07:57:55;;;;;;;41.20;24.13;;;10.40;99.90;;;;;;5055765;28;20243;-73
2021/12/15 08:00:24;;;;;;;39.57;23.87;;;10.40;99.90;;;;;;5051741;28;20590;-72
2021/12/15 08:02:53;;;;;;;43.47;25.20;;;10.30;99.90;;;;;;5064826;28;20282;-73
2021/12/15 08:05:19;;;;;;;42.57;24.27;;;10.40;99.90;;;;;;5057427;28;20187;-73
2021/12/15 08:07:45;;;;;;;42.73;23.57;;;10.40;99.90;;;;;;5063650;28;20271;-74
2021/12/15 08:10:12;;;;;;;43.07;22.87;;;10.40;99.90;;;;;;5080173;28;20603;-74
2021/12/15 08:12:40;;;;;;;38.97;24.00;;;10.40;99.90;;;;;;5074362;28;20495;-74
2021/12/15 08:15:07;;;;;;;42.87;25.03;;;10.50;99.90;;;;;;5053335;28;20184;-76
2021/12/15 08:17:38;;;;;;;38.37;22.73;;;10.50;99.90;;;;;;5062673;28;20199;-74
2021/12/15 08:20:07;;;;;;;40.33;23.53;;;10.40;99.90;;;;;;5064615;28;20201;-73
2021/12/15 08:22:33;;;;;;;39.33;24.10;;;10.40;99.90;;;;;;5071145;28;20241;-74
2021/12/15 08:24:58;;;;;;;38.00;23.33;;;10.50;99.90;;;;;;5061157;28;20719;-74
2021/12/15 08:27:24;;;;;;;40.90;24.20;;;10.50;99.90;;;;;;5062340;28;20207;-74
2021/12/15 08:29:52;;;;;;;36.77;23.07;;;10.50;99.90;;;;;;5060201;28;20180;-74
2021/12/15 08:32:18;;;;;;;36.40;23.07;;;10.50;99.90;;;;;;5057931;28;20319;-73
2021/12/15 08:34:44;;;;;;;44.83;24.40;;;10.50;99.90;;;;;;5065288;28;20264;-74
2021/12/15 08:37:13;;;;;;;48.33;26.80;;;10.60;99.90;;;;;;5070251;28;20295;-74
2021/12/15 08:39:40;;;;;;;41.97;25.03;;;10.60;99.90;;;;;;5069690;28;20188;-74
2021/12/15 08:42:07;;;;;;;40.17;24.80;;;10.60;99.90;;;;;;5070035;28;20317;-75
2021/12/15 08:44:33;;;;;;;45.50;25.60;;;10.70;99.90;;;;;;5061864;28;20172;-74
2021/12/15 08:46:58;;;;;;;39.87;24.40;;;10.60;99.90;;;;;;5071885;28;20572;-74
2021/12/15 08:49:24;;;;;;;44.73;25.37;;;10.70;99.90;;;;;;5069286;28;20673;-75
2021/12/15 08:51:51;;;;;;;40.13;24.47;;;10.70;99.90;;;;;;5064409;28;20609;-73
2021/12/15 08:54:22;;;;;;;42.23;25.57;;;10.70;99.90;;;;;;5062294;28;20180;-75
2021/12/15 08:56:48;;;;;;;42.03;24.53;;;10.70;99.90;;;;;;5069125;28;20196;-74
2021/12/15 08:59:15;;;;;;;41.40;25.00;;;10.70;99.90;;;;;;5068505;28;20177;-74
2021/12/15 09:01:42;;;;;;;45.80;26.00;;;10.70;99.90;;;;;;5070746;28;20275;-75
2021/12/15 09:04:10;;;;;;;39.57;25.03;;;10.60;99.90;;;;;;5065437;28;20283;-73
2021/12/15 09:06:36;;;;;;;40.70;25.40;;;10.60;99.90;;;;;;5062726;28;20267;-74
2021/12/15 09:09:07;;;;;;;41.90;25.97;;;10.70;99.90;;;;;;5064653;28;20177;-74
2021/12/15 09:11:36;;;;;;;40.33;25.80;;;10.70;99.90;;;;;;5067794;28;20203;-73
2021/12/15 09:14:02;;;;;;;40.93;26.03;;;10.70;99.90;;;;;;5068456;28;20176;-74
2021/12/15 09:16:33;;;;;;;39.73;25.73;;;10.70;99.90;;;;;;5069353;28;20200;-73
2021/12/15 09:19:00;;;;;;;41.90;25.97;;;10.80;99.90;;;;;;5060909;28;20173;-75
2021/12/15 09:21:29;;;;;;;40.00;25.73;;;10.90;99.90;;;;;;5051547;28;20184;-75
2021/12/15 09:23:55;;;;;;;41.90;25.60;;;11.00;99.90;;;;;;5083908;28;20261;-74
2021/12/15 09:26:21;;;;;;;43.30;26.23;;;10.80;99.90;;;;;;5067667;28;20226;-74
2021/12/15 09:28:48;;;;;;;44.80;25.63;;;10.80;99.90;;;;;;5071731;28;20212;-74
2021/12/15 09:31:15;;;;;;;46.17;27.83;;;10.70;99.90;;;;;;5069076;28;20180;-75
2021/12/15 09:33:46;;;;;;;42.20;24.93;;;10.70;99.90;;;;;;5067746;28;20298;-74
2021/12/15 09:36:15;;;;;;;42.60;27.63;;;10.80;99.90;;;;;;5055722;28;20294;-75
2021/12/15 09:38:43;;;;;;;43.10;25.50;;;10.70;99.90;;;;;;5070850;28;20165;-75
2021/12/15 09:41:13;;;;;;;39.23;25.37;;;10.80;99.90;;;;;;5068996;28;20177;-74
2021/12/15 09:43:39;;;;;;;42.97;25.40;;;10.70;99.90;;;;;;5063591;28;20173;-75
2021/12/15 09:46:29;;;;;;;42.63;26.40;;;10.70;99.90;;;;;;5071941;28;20326;-74
2021/12/15 09:57:27;;;;;;;40.47;25.23;;;10.80;99.90;;;;;;5068742;28;20258;-74
2021/12/15 10:02:58;;;;;;;41.03;24.80;;;11.00;99.90;;;;;;5014850;28;20214;-74
2021/12/15 10:19:21;;;;;;;37.17;24.87;;;11.00;99.90;;;;;;5023720;28;20567;-75
2021/12/15 10:22:08;;;;;;;42.37;25.80;;;11.00;99.90;;;;;;5022661;28;20664;-75
2021/12/15 10:24:51;;;;;;;43.70;26.67;;;10.90;99.90;;;;;;5023936;28;20237;-74
2021/12/15 10:27:32;;;;;;;39.53;23.67;;;11.10;99.90;;;;;;5021196;28;20182;-75
2021/12/15 10:30:28;;;;;;;36.67;24.67;;;11.20;99.90;;;;;;5024669;28;20185;-75
2021/12/15 10:32:59;;;;;;;39.93;24.10;;;11.20;99.90;;;;;;5009024;28;20189;-74
2021/12/15 10:35:41;;;;;;;37.20;23.57;;;11.30;99.90;;;;;;5008509;28;20615;-73
2021/12/15 10:38:08;;;;;;;56.03;38.03;;;11.30;99.90;;;;;;5013589;28;20208;-74
2021/12/15 10:40:44;;;;;;;56.57;41.90;;;11.40;99.90;;;;;;5047548;28;20327;-76
2021/12/15 10:43:11;;;;;;;38.03;25.00;;;11.50;99.90;;;;;;5028867;28;20653;-74
2021/12/15 10:46:01;;;;;;;35.57;25.43;;;11.60;99.90;;;;;;5043774;28;20257;-75
2021/12/15 10:48:37;;;;;;;39.27;30.57;;;11.50;99.90;;;;;;5041362;28;20717;-75
2021/12/15 10:51:24;;;;;;;40.97;30.73;;;11.60;99.90;;;;;;5051074;28;20338;-74
2021/12/15 10:53:52;;;;;;;35.33;23.70;;;11.60;99.90;;;;;;5050422;28;20208;-76
2021/12/15 10:56:22;;;;;;;37.90;24.97;;;11.60;99.90;;;;;;5051170;28;20265;-74
2021/12/15 10:58:52;;;;;;;31.97;22.20;;;11.50;99.90;;;;;;5038828;28;20213;-75
2021/12/15 11:01:42;;;;;;;35.43;22.07;;;11.50;99.90;;;;;;5047971;28;20649;-74
2021/12/15 11:04:21;;;;;;;30.70;21.43;;;11.50;99.90;;;;;;5032277;28;20224;-74
2021/12/15 11:07:08;;;;;;;28.53;20.80;;;11.50;99.90;;;;;;5045200;28;20185;-76
2021/12/15 11:09:48;;;;;;;42.90;27.97;;;11.40;99.90;;;;;;5056673;28;20246;-74
2021/12/15 11:12:26;;;;;;;34.47;23.20;;;11.40;99.90;;;;;;5063075;28;20173;-75
2021/12/15 11:15:27;;;;;;;30.93;21.63;;;11.40;99.90;;;;;;5076389;28;20469;-75
2021/12/15 11:18:09;;;;;;;28.97;20.73;;;11.50;99.90;;;;;;5060120;28;20192;-75
2021/12/15 11:20:39;;;;;;;25.83;19.80;;;11.50;99.90;;;;;;5063516;28;20177;-76
2021/12/15 11:23:15;;;;;;;26.97;19.70;;;11.40;99.90;;;;;;5079461;28;20175;-75
2021/12/15 11:25:49;;;;;;;31.00;21.90;;;11.50;99.90;;;;;;5054655;28;20639;-76
2021/12/15 11:28:30;;;;;;;37.67;23.87;;;11.40;99.90;;;;;;5063726;28;20184;-76
2021/12/15 11:31:01;;;;;;;92.37;75.70;;;11.40;99.90;;;;;;5056114;28;20172;-76
2021/12/15 11:33:32;;;;;;;31.80;21.87;;;11.30;99.90;;;;;;5053323;28;20172;-75
2021/12/15 11:36:27;;;;;;;30.43;22.70;;;11.40;99.90;;;;;;5056892;28;20529;-77
2021/12/15 11:39:12;;;;;;;30.97;20.97;;;11.40;99.90;;;;;;5064882;28;20248;-76
2021/12/15 11:41:47;;;;;;;30.20;20.90;;;11.50;99.90;;;;;;5064453;28;20272;-76
2021/12/15 11:44:15;;;;;;;28.23;21.27;;;11.60;99.90;;;;;;5073797;28;20722;-76
2021/12/15 11:46:44;;;;;;;32.57;20.90;;;11.50;99.90;;;;;;5072606;28;20169;-76
2021/12/15 11:49:14;;;;;;;28.47;21.23;;;11.50;99.90;;;;;;5070355;28;20168;-76
2021/12/15 11:51:42;;;;;;;27.17;19.83;;;11.60;99.90;;;;;;5062962;28;20276;-76
2021/12/15 11:54:20;;;;;;;29.57;20.43;;;11.70;99.90;;;;;;5053945;28;20172;-77
2021/12/15 11:57:25;;;;;;;31.17;22.03;;;11.60;99.90;;;;;;5054614;28;20212;-76
2021/12/15 11:59:55;;;;;;;28.20;20.00;;;11.70;99.90;;;;;;5063643;28;20226;-75
2021/12/15 12:02:25;;;;;;;51.20;39.70;;;11.60;99.90;;;;;;5066325;28;20296;-75
2021/12/15 12:04:54;;;;;;;31.83;20.77;;;11.80;99.90;;;;;;5068080;28;20183;-75
2021/12/15 12:07:47;;;;;;;24.37;17.70;;;11.80;99.90;;;;;;5060616;28;20178;-75
2021/12/15 12:10:24;;;;;;;29.73;20.70;;;11.80;99.90;;;;;;5055942;28;20189;-75
2021/12/15 12:13:03;;;;;;;26.23;18.73;;;12.00;99.90;;;;;;5042977;28;20188;-75
2021/12/15 12:15:30;;;;;;;28.63;22.07;;;12.00;99.90;;;;;;5070739;28;20214;-75
2021/12/15 12:18:00;;;;;;;31.03;23.03;;;11.90;99.90;;;;;;5069152;28;20177;-75
2021/12/15 12:20:32;;;;;;;31.60;22.60;;;12.00;99.90;;;;;;5072391;28;20164;-75
2021/12/15 12:23:00;;;;;;;39.33;26.40;;;12.00;99.90;;;;;;5063273;28;20238;-75
2021/12/15 12:25:39;;;;;;;32.03;21.80;;;11.80;99.90;;;;;;5067891;28;20184;-75
2021/12/15 12:28:11;;;;;;;31.50;21.63;;;11.80;99.90;;;;;;5056047;28;20173;-75
2021/12/15 12:30:40;;;;;;;46.43;32.33;;;11.80;99.90;;;;;;5063283;28;20184;-74
2021/12/15 12:33:08;;;;;;;38.57;26.47;;;11.70;99.90;;;;;;5068560;28;20183;-75
2021/12/15 12:35:35;;;;;;;34.60;25.20;;;11.80;99.90;;;;;;5071143;28;20234;-74
2021/12/15 12:38:09;;;;;;;35.67;25.20;;;11.70;99.90;;;;;;5071212;28;20165;-75
2021/12/15 12:40:39;;;;;;;33.03;23.97;;;11.60;99.90;;;;;;5068534;28;20193;-74
2021/12/15 12:43:22;;;;;;;31.07;23.23;;;11.60;99.90;;;;;;5056946;28;20263;-74
2021/12/15 12:46:19;;;;;;;33.37;24.17;;;11.80;99.90;;;;;;5069794;28;20646;-75
2021/12/15 13:00:27;;;;;;;39.63;29.43;;;11.70;99.90;;;;;;5008819;28;20189;-75
2021/12/15 13:03:00;;;;;;;34.70;23.67;;;11.70;99.90;;;;;;5009653;28;20701;-73
2021/12/15 13:06:01;;;;;;;35.83;23.73;;;11.70;99.90;;;;;;5008892;28;20210;-74
2021/12/15 13:08:34;;;;;;;34.17;24.23;;;11.70;99.90;;;;;;5007609;28;20183;-75
2021/12/15 13:11:21;;;;;;;33.80;23.93;;;11.60;99.90;;;;;;5003516;28;20186;-73
2021/12/15 13:13:52;;;;;;;37.83;25.37;;;11.70;99.90;;;;;;5005439;28;20274;-76
2021/12/15 13:16:47;;;;;;;30.97;23.30;;;11.70;99.90;;;;;;5007317;28;20293;-75
2021/12/15 13:19:17;;;;;;;46.10;24.60;;;11.70;99.90;;;;;;5008440;28;20325;-75
2021/12/15 13:21:50;;;;;;;38.70;23.50;;;11.70;99.90;;;;;;5012236;28;20188;-75
2021/12/15 13:30:37;;;;;;;37.73;25.67;;;11.60;99.90;;;;;;5012889;28;20182;-75
2021/12/15 13:33:12;;;;;;;38.47;24.87;;;11.60;99.90;;;;;;5021995;28;20663;-75
2021/12/15 13:35:45;;;;;;;35.73;24.97;;;11.70;99.90;;;;;;5064659;28;20204;-74
2021/12/15 13:38:12;;;;;;;36.03;24.77;;;11.70;99.90;;;;;;5071822;28;20176;-75
2021/12/15 13:41:25;;;;;;;34.20;25.53;;;11.60;99.90;;;;;;5071232;28;20204;-75
2021/12/15 13:43:56;;;;;;;34.73;24.17;;;11.60;99.90;;;;;;5072941;28;20260;-74
2021/12/15 13:46:23;;;;;;;32.67;24.47;;;11.70;99.90;;;;;;5073830;28;20169;-75
2021/12/15 13:48:58;;;;;;;32.23;23.77;;;11.80;99.90;;;;;;5072438;28;20180;-74
2021/12/15 13:52:01;;;;;;;37.37;25.53;;;11.70;99.90;;;;;;5069075;28;20194;-75
2021/12/15 13:54:32;;;;;;;37.50;24.70;;;11.70;99.90;;;;;;5072136;28;20249;-76
2021/12/15 13:57:11;;;;;;;35.67;26.17;;;11.70;99.90;;;;;;5074694;28;20263;-76
2021/12/15 13:59:51;;;;;;;38.17;28.80;;;11.70;99.90;;;;;;5065860;28;20173;-75
2021/12/15 14:02:19;;;;;;;37.10;25.57;;;11.60;99.90;;;;;;5073379;28;20196;-76
2021/12/15 14:04:45;;;;;;;38.80;25.37;;;11.50;99.90;;;;;;5071985;28;20583;-76
2021/12/15 14:07:40;;;;;;;34.47;24.40;;;11.60;99.90;;;;;;5072521;28;20173;-75
2021/12/15 14:10:12;;;;;;;36.10;24.40;;;11.60;99.90;;;;;;5069741;28;20251;-75
2021/12/15 14:12:47;;;;;;;32.10;24.90;;;11.60;99.90;;;;;;5060428;28;20176;-75
2021/12/15 14:15:24;;;;;;;36.17;25.97;;;11.60;99.90;;;;;;5075112;28;20571;-76
2021/12/15 14:18:09;;;;;;;37.73;27.07;;;11.50;99.90;;;;;;5072755;28;20188;-75